sensor_id;sensor_type;location;lat;lon;timestamp;P1;durP1;ratioP1;P2;durP2;ratioP2
14708;SDS011;7445;50.774;4.944;2023-08-12T07:03:36;1.48;;;1.40;;
14708;SDS011;7445;50.774;4.944;2023-08-12T07:06:06;1.60;;;1.50;;
14708;SDS011;7445;50.774;4.944;2023-08-12T07:08:47;1.25;;;1.15;;
14708;SDS011;7445;50.774;4.944;2023-08-12T07:11:15;5.05;;;1.23;;
14708;SDS011;7445;50.774;4.944;2023-08-12T07:14:13;0.95;;;0.95;;
14708;SDS011;7445;50.774;4.944;2023-08-12T07:16:53;1.75;;;1.25;;
14708;SDS011;7445;50.774;4.944;2023-08-12T07:19:53;0.83;;;0.80;;
14708;SDS011;7445;50.774;4.944;2023-08-12T07:22:41;3.90;;;1.10;;
14708;SDS011;7445;50.774;4.944;2023-08-12T07:25:12;2.40;;;0.93;;
14708;SDS011;7445;50.774;4.944;2023-08-12T07:27:54;1.10;;;0.73;;
14708;SDS011;7445;50.774;4.944;2023-08-12T07:30:20;2.40;;;0.60;;
14708;SDS011;7445;50.774;4.944;2023-08-12T07:32:46;0.50;;;0.50;;
14708;SDS011;7445;50.774;4.944;2023-08-12T07:35:12;0.45;;;0.45;;
14708;SDS011;7445;50.774;4.944;2023-08-12T07:37:48;0.50;;;0.30;;
14708;SDS011;7445;50.774;4.944;2023-08-12T07:40:46;0.30;;;0.30;;
14708;SDS011;7445;50.774;4.944;2023-08-12T07:43:13;0.30;;;0.30;;
14708;SDS011;7445;50.774;4.944;2023-08-12T07:45:44;1.35;;;0.70;;
14708;SDS011;7445;50.774;4.944;2023-08-12T07:48:12;0.47;;;0.47;;
14708;SDS011;7445;50.774;4.944;2023-08-12T07:50:38;0.30;;;0.30;;
14708;SDS011;7445;50.774;4.944;2023-08-12T07:53:03;0.30;;;0.30;;
14708;SDS011;7445;50.774;4.944;2023-08-12T07:55:29;2.50;;;0.30;;
14708;SDS011;7445;50.774;4.944;2023-08-12T07:57:56;0.25;;;0.25;;
14708;SDS011;7445;50.774;4.944;2023-08-12T08:00:22;3.03;;;0.35;;
14708;SDS011;7445;50.774;4.944;2023-08-12T08:02:47;0.65;;;0.45;;
14708;SDS011;7445;50.774;4.944;2023-08-12T08:05:13;0.73;;;0.30;;
14708;SDS011;7445;50.774;4.944;2023-08-12T08:07:39;0.75;;;0.63;;
14708;SDS011;7445;50.774;4.944;2023-08-12T08:10:05;1.48;;;0.52;;
14708;SDS011;7445;50.774;4.944;2023-08-12T08:12:31;1.15;;;0.43;;
14708;SDS011;7445;50.774;4.944;2023-08-12T08:14:57;1.02;;;0.65;;
14708;SDS011;7445;50.774;4.944;2023-08-12T08:17:23;2.90;;;0.90;;
14708;SDS011;7445;50.774;4.944;2023-08-12T08:19:48;0.90;;;0.32;;
14708;SDS011;7445;50.774;4.944;2023-08-12T08:22:14;1.38;;;0.52;;
14708;SDS011;7445;50.774;4.944;2023-08-12T08:24:40;0.57;;;0.57;;
14708;SDS011;7445;50.774;4.944;2023-08-12T08:27:06;0.90;;;0.90;;
14708;SDS011;7445;50.774;4.944;2023-08-12T08:29:32;0.60;;;0.60;;
14708;SDS011;7445;50.774;4.944;2023-08-12T08:31:58;0.82;;;0.50;;
14708;SDS011;7445;50.774;4.944;2023-08-12T08:34:24;0.95;;;0.73;;
14708;SDS011;7445;50.774;4.944;2023-08-12T08:36:50;3.95;;;1.00;;
14708;SDS011;7445;50.774;4.944;2023-08-12T08:39:16;1.05;;;1.00;;
14708;SDS011;7445;50.774;4.944;2023-08-12T08:41:42;0.85;;;0.80;;
14708;SDS011;7445;50.774;4.944;2023-08-12T08:44:11;2.25;;;0.98;;
14708;SDS011;7445;50.774;4.944;2023-08-12T08:46:44;2.55;;;1.02;;
14708;SDS011;7445;50.774;4.944;2023-08-12T08:49:12;1.50;;;1.10;;
14708;SDS011;7445;50.774;4.944;2023-08-12T08:51:42;4.45;;;1.30;;
14708;SDS011;7445;50.774;4.944;2023-08-12T08:54:10;2.28;;;1.17;;
14708;SDS011;7445;50.774;4.944;2023-08-12T08:56:38;1.55;;;0.93;;
14708;SDS011;7445;50.774;4.944;2023-08-12T08:59:04;2.63;;;1.17;;
14708;SDS011;7445;50.774;4.944;2023-08-12T09:01:31;1.17;;;1.08;;
14708;SDS011;7445;50.774;4.944;2023-08-12T09:03:57;1.20;;;1.10;;
14708;SDS011;7445;50.774;4.944;2023-08-12T09:06:25;6.13;;;1.33;;
14708;SDS011;7445;50.774;4.944;2023-08-12T09:08:51;1.55;;;1.20;;
14708;SDS011;7445;50.774;4.944;2023-08-12T09:11:19;1.40;;;0.93;;
14708;SDS011;7445;50.774;4.944;2023-08-12T09:13:45;1.70;;;1.60;;
14708;SDS011;7445;50.774;4.944;2023-08-12T09:16:12;3.88;;;2.65;;
14708;SDS011;7445;50.774;4.944;2023-08-12T09:18:40;2.95;;;2.75;;
14708;SDS011;7445;50.774;4.944;2023-08-12T09:21:08;3.20;;;3.00;;
14708;SDS011;7445;50.774;4.944;2023-08-12T09:23:35;3.03;;;2.83;;
14708;SDS011;7445;50.774;4.944;2023-08-12T09:26:15;3.60;;;2.78;;
14708;SDS011;7445;50.774;4.944;2023-08-12T09:28:42;2.60;;;2.38;;
14708;SDS011;7445;50.774;4.944;2023-08-12T09:31:08;2.47;;;2.28;;
14708;SDS011;7445;50.774;4.944;2023-08-12T09:33:47;2.38;;;2.17;;
14708;SDS011;7445;50.774;4.944;2023-08-12T09:36:15;2.97;;;2.33;;
14708;SDS011;7445;50.774;4.944;2023-08-12T09:38:42;2.47;;;2.28;;
14708;SDS011;7445;50.774;4.944;2023-08-12T09:41:10;1.70;;;1.60;;
14708;SDS011;7445;50.774;4.944;2023-08-12T09:43:41;1.73;;;1.08;;
14708;SDS011;7445;50.774;4.944;2023-08-12T09:46:10;2.67;;;1.60;;
14708;SDS011;7445;50.774;4.944;2023-08-12T09:48:41;0.68;;;0.68;;
14708;SDS011;7445;50.774;4.944;2023-08-12T09:51:07;0.95;;;0.70;;
14708;SDS011;7445;50.774;4.944;2023-08-12T09:53:34;1.88;;;1.00;;
14708;SDS011;7445;50.774;4.944;2023-08-12T09:56:06;2.17;;;0.82;;
14708;SDS011;7445;50.774;4.944;2023-08-12T09:58:36;2.70;;;1.08;;
14708;SDS011;7445;50.774;4.944;2023-08-12T10:01:03;0.95;;;0.68;;
14708;SDS011;7445;50.774;4.944;2023-08-12T10:03:30;1.70;;;1.33;;
14708;SDS011;7445;50.774;4.944;2023-08-12T10:05:59;0.95;;;0.80;;
14708;SDS011;7445;50.774;4.944;2023-08-12T10:08:28;1.50;;;1.15;;
14708;SDS011;7445;50.774;4.944;2023-08-12T10:10:56;1.10;;;0.88;;
14708;SDS011;7445;50.774;4.944;2023-08-12T10:13:22;1.70;;;0.70;;
14708;SDS011;7445;50.774;4.944;2023-08-12T10:15:51;1.67;;;0.80;;
14708;SDS011;7445;50.774;4.944;2023-08-12T10:18:22;1.27;;;0.70;;
14708;SDS011;7445;50.774;4.944;2023-08-12T10:20:51;1.38;;;1.27;;
14708;SDS011;7445;50.774;4.944;2023-08-12T10:23:19;4.97;;;1.10;;
14708;SDS011;7445;50.774;4.944;2023-08-12T10:25:46;4.00;;;1.52;;
14708;SDS011;7445;50.774;4.944;2023-08-12T10:28:17;3.85;;;1.00;;
14708;SDS011;7445;50.774;4.944;2023-08-12T10:30:44;2.65;;;1.00;;
14708;SDS011;7445;50.774;4.944;2023-08-12T10:33:14;1.65;;;0.85;;
14708;SDS011;7445;50.774;4.944;2023-08-12T10:41:35;1.65;;;1.30;;
14708;SDS011;7445;50.774;4.944;2023-08-12T10:44:05;1.50;;;1.40;;
14708;SDS011;7445;50.774;4.944;2023-08-12T10:46:52;1.60;;;0.90;;
14708;SDS011;7445;50.774;4.944;2023-08-12T10:49:36;1.23;;;1.05;;
14708;SDS011;7445;50.774;4.944;2023-08-12T10:52:33;1.70;;;1.58;;
14708;SDS011;7445;50.774;4.944;2023-08-12T10:57:51;2.40;;;1.90;;
14708;SDS011;7445;50.774;4.944;2023-08-12T11:00:38;3.30;;;2.03;;
14708;SDS011;7445;50.774;4.944;2023-08-12T11:03:08;2.28;;;2.08;;
14708;SDS011;7445;50.774;4.944;2023-08-12T11:05:36;2.30;;;2.00;;
14708;SDS011;7445;50.774;4.944;2023-08-12T11:08:09;2.75;;;1.60;;
14708;SDS011;7445;50.774;4.944;2023-08-12T11:11:10;2.78;;;1.95;;
14708;SDS011;7445;50.774;4.944;2023-08-12T11:14:01;2.40;;;1.90;;
14708;SDS011;7445;50.774;4.944;2023-08-12T11:17:06;3.97;;;1.42;;
14708;SDS011;7445;50.774;4.944;2023-08-12T11:22:32;1.67;;;1.38;;
14708;SDS011;7445;50.774;4.944;2023-08-12T11:25:03;1.92;;;1.83;;
14708;SDS011;7445;50.774;4.944;2023-08-12T11:27:53;1.85;;;1.75;;
14708;SDS011;7445;50.774;4.944;2023-08-12T11:30:24;2.33;;;2.13;;
14708;SDS011;7445;50.774;4.944;2023-08-12T11:32:51;2.55;;;2.00;;
14708;SDS011;7445;50.774;4.944;2023-08-12T11:35:18;2.97;;;2.03;;
14708;SDS011;7445;50.774;4.944;2023-08-12T11:37:47;2.78;;;1.58;;
14708;SDS011;7445;50.774;4.944;2023-08-12T11:40:18;2.20;;;1.63;;
14708;SDS011;7445;50.774;4.944;2023-08-12T11:42:48;3.45;;;1.95;;
14708;SDS011;7445;50.774;4.944;2023-08-12T11:45:19;4.10;;;1.63;;
14708;SDS011;7445;50.774;4.944;2023-08-12T11:47:47;3.63;;;1.70;;
14708;SDS011;7445;50.774;4.944;2023-08-12T11:50:17;2.17;;;1.60;;
14708;SDS011;7445;50.774;4.944;2023-08-12T11:52:52;3.47;;;2.33;;
14708;SDS011;7445;50.774;4.944;2023-08-12T11:55:20;6.28;;;2.17;;
14708;SDS011;7445;50.774;4.944;2023-08-12T11:57:46;1.90;;;1.73;;
14708;SDS011;7445;50.774;4.944;2023-08-12T12:00:12;2.58;;;1.65;;
14708;SDS011;7445;50.774;4.944;2023-08-12T12:02:39;3.03;;;1.95;;
14708;SDS011;7445;50.774;4.944;2023-08-12T12:05:10;3.10;;;1.70;;
14708;SDS011;7445;50.774;4.944;2023-08-12T12:07:36;3.50;;;1.83;;
14708;SDS011;7445;50.774;4.944;2023-08-12T12:10:02;3.78;;;1.80;;
14708;SDS011;7445;50.774;4.944;2023-08-12T12:12:30;5.15;;;2.10;;
14708;SDS011;7445;50.774;4.944;2023-08-12T12:15:00;4.53;;;2.00;;
14708;SDS011;7445;50.774;4.944;2023-08-12T12:17:26;3.78;;;2.05;;
14708;SDS011;7445;50.774;4.944;2023-08-12T12:19:54;2.90;;;1.17;;
14708;SDS011;7445;50.774;4.944;2023-08-12T12:22:25;2.75;;;1.38;;
14708;SDS011;7445;50.774;4.944;2023-08-12T12:24:53;4.60;;;2.03;;
14708;SDS011;7445;50.774;4.944;2023-08-12T12:27:19;2.97;;;1.63;;
14708;SDS011;7445;50.774;4.944;2023-08-12T12:29:45;2.15;;;1.90;;
14708;SDS011;7445;50.774;4.944;2023-08-12T12:32:12;4.97;;;1.42;;
14708;SDS011;7445;50.774;4.944;2023-08-12T12:34:43;5.88;;;1.83;;
14708;SDS011;7445;50.774;4.944;2023-08-12T12:37:08;5.10;;;2.40;;
14708;SDS011;7445;50.774;4.944;2023-08-12T12:39:34;4.18;;;2.17;;
14708;SDS011;7445;50.774;4.944;2023-08-12T12:42:00;3.95;;;2.10;;
14708;SDS011;7445;50.774;4.944;2023-08-12T12:44:26;3.17;;;1.92;;
14708;SDS011;7445;50.774;4.944;2023-08-12T12:46:52;6.57;;;2.88;;
14708;SDS011;7445;50.774;4.944;2023-08-12T12:49:18;4.78;;;3.17;;
14708;SDS011;7445;50.774;4.944;2023-08-12T12:51:44;4.20;;;2.72;;
14708;SDS011;7445;50.774;4.944;2023-08-12T12:54:10;3.33;;;3.13;;
14708;SDS011;7445;50.774;4.944;2023-08-12T12:56:36;5.07;;;3.20;;
14708;SDS011;7445;50.774;4.944;2023-08-12T12:59:01;4.90;;;3.17;;
14708;SDS011;7445;50.774;4.944;2023-08-12T13:01:28;4.03;;;2.90;;
14708;SDS011;7445;50.774;4.944;2023-08-12T13:03:54;4.93;;;3.53;;
14708;SDS011;7445;50.774;4.944;2023-08-12T13:06:21;3.47;;;2.97;;
14708;SDS011;7445;50.774;4.944;2023-08-12T13:08:48;4.13;;;3.13;;
14708;SDS011;7445;50.774;4.944;2023-08-12T13:11:15;4.15;;;3.03;;
14708;SDS011;7445;50.774;4.944;2023-08-12T13:13:41;4.25;;;2.58;;
14708;SDS011;7445;50.774;4.944;2023-08-12T13:16:06;2.70;;;2.45;;
14708;SDS011;7445;50.774;4.944;2023-08-12T13:18:34;2.42;;;2.10;;
14708;SDS011;7445;50.774;4.944;2023-08-12T13:20:59;4.28;;;2.55;;
14708;SDS011;7445;50.774;4.944;2023-08-12T13:23:25;5.18;;;3.20;;
14708;SDS011;7445;50.774;4.944;2023-08-12T13:25:51;4.53;;;2.47;;
14708;SDS011;7445;50.774;4.944;2023-08-12T13:28:17;2.10;;;1.90;;
14708;SDS011;7445;50.774;4.944;2023-08-12T13:30:43;2.58;;;1.70;;
14708;SDS011;7445;50.774;4.944;2023-08-12T13:33:09;1.73;;;1.50;;
14708;SDS011;7445;50.774;4.944;2023-08-12T13:35:35;2.22;;;2.03;;
14708;SDS011;7445;50.774;4.944;2023-08-12T13:38:01;3.63;;;1.80;;
14708;SDS011;7445;50.774;4.944;2023-08-12T13:40:26;2.90;;;2.10;;
14708;SDS011;7445;50.774;4.944;2023-08-12T13:42:52;3.75;;;2.17;;
14708;SDS011;7445;50.774;4.944;2023-08-12T13:45:18;5.07;;;1.55;;
14708;SDS011;7445;50.774;4.944;2023-08-12T13:47:45;3.13;;;1.48;;
14708;SDS011;7445;50.774;4.944;2023-08-12T13:50:11;8.55;;;2.15;;
14708;SDS011;7445;50.774;4.944;2023-08-12T13:52:38;3.13;;;2.00;;
14708;SDS011;7445;50.774;4.944;2023-08-12T13:55:04;3.20;;;1.67;;
14708;SDS011;7445;50.774;4.944;2023-08-12T13:57:30;5.07;;;1.67;;
14708;SDS011;7445;50.774;4.944;2023-08-12T13:59:57;3.03;;;1.77;;
14708;SDS011;7445;50.774;4.944;2023-08-12T14:02:24;3.17;;;1.83;;
14708;SDS011;7445;50.774;4.944;2023-08-12T14:04:52;2.58;;;1.60;;
14708;SDS011;7445;50.774;4.944;2023-08-12T14:07:17;4.65;;;2.03;;
14708;SDS011;7445;50.774;4.944;2023-08-12T14:09:49;5.68;;;2.20;;
14708;SDS011;7445;50.774;4.944;2023-08-12T14:12:15;2.97;;;1.48;;
14708;SDS011;7445;50.774;4.944;2023-08-12T14:14:41;4.43;;;1.60;;
14708;SDS011;7445;50.774;4.944;2023-08-12T14:17:07;2.42;;;1.58;;
14708;SDS011;7445;50.774;4.944;2023-08-12T14:19:32;3.65;;;1.80;;
14708;SDS011;7445;50.774;4.944;2023-08-12T14:21:58;6.68;;;1.90;;
14708;SDS011;7445;50.774;4.944;2023-08-12T14:24:24;4.90;;;2.10;;
14708;SDS011;7445;50.774;4.944;2023-08-12T14:26:50;2.53;;;2.10;;
14708;SDS011;7445;50.774;4.944;2023-08-12T14:29:15;1.75;;;1.65;;
14708;SDS011;7445;50.774;4.944;2023-08-12T14:31:41;2.20;;;1.80;;
14708;SDS011;7445;50.774;4.944;2023-08-12T14:34:08;2.95;;;2.00;;
14708;SDS011;7445;50.774;4.944;2023-08-12T14:36:33;4.60;;;2.42;;
14708;SDS011;7445;50.774;4.944;2023-08-12T14:39:01;3.53;;;1.92;;
14708;SDS011;7445;50.774;4.944;2023-08-12T14:41:26;4.45;;;1.83;;
14708;SDS011;7445;50.774;4.944;2023-08-12T14:43:52;3.92;;;2.70;;
14708;SDS011;7445;50.774;4.944;2023-08-12T14:46:18;6.07;;;2.80;;
14708;SDS011;7445;50.774;4.944;2023-08-12T14:48:43;4.53;;;2.33;;
14708;SDS011;7445;50.774;4.944;2023-08-12T14:51:09;7.03;;;2.63;;
14708;SDS011;7445;50.774;4.944;2023-08-12T14:53:35;3.35;;;1.58;;
14708;SDS011;7445;50.774;4.944;2023-08-12T14:56:00;3.22;;;1.73;;
14708;SDS011;7445;50.774;4.944;2023-08-12T14:58:26;1.58;;;1.45;;
14708;SDS011;7445;50.774;4.944;2023-08-12T15:00:52;5.82;;;2.13;;
14708;SDS011;7445;50.774;4.944;2023-08-12T15:03:17;2.60;;;1.83;;
14708;SDS011;7445;50.774;4.944;2023-08-12T15:05:43;1.58;;;1.48;;
14708;SDS011;7445;50.774;4.944;2023-08-12T15:08:08;2.45;;;1.85;;
14708;SDS011;7445;50.774;4.944;2023-08-12T15:10:37;3.20;;;2.20;;
14708;SDS011;7445;50.774;4.944;2023-08-12T15:13:02;4.32;;;2.60;;
14708;SDS011;7445;50.774;4.944;2023-08-12T15:15:28;2.97;;;1.95;;
14708;SDS011;7445;50.774;4.944;2023-08-12T15:17:54;1.67;;;1.33;;
14708;SDS011;7445;50.774;4.944;2023-08-12T15:20:20;4.53;;;2.28;;
14708;SDS011;7445;50.774;4.944;2023-08-12T15:22:45;4.82;;;1.73;;
14708;SDS011;7445;50.774;4.944;2023-08-12T15:25:12;4.75;;;1.73;;
14708;SDS011;7445;50.774;4.944;2023-08-12T15:27:38;4.15;;;2.00;;
14708;SDS011;7445;50.774;4.944;2023-08-12T15:30:04;3.35;;;1.98;;
14708;SDS011;7445;50.774;4.944;2023-08-12T15:32:30;3.47;;;1.88;;
14708;SDS011;7445;50.774;4.944;2023-08-12T15:34:57;3.50;;;2.08;;
14708;SDS011;7445;50.774;4.944;2023-08-12T15:37:23;3.72;;;1.77;;
14708;SDS011;7445;50.774;4.944;2023-08-12T15:39:49;2.20;;;1.48;;
14708;SDS011;7445;50.774;4.944;2023-08-12T15:42:15;6.05;;;1.55;;
14708;SDS011;7445;50.774;4.944;2023-08-12T15:44:40;2.55;;;1.73;;
14708;SDS011;7445;50.774;4.944;2023-08-12T15:47:06;2.58;;;1.92;;
14708;SDS011;7445;50.774;4.944;2023-08-12T15:49:33;2.63;;;2.08;;
14708;SDS011;7445;50.774;4.944;2023-08-12T15:51:59;3.33;;;1.90;;
14708;SDS011;7445;50.774;4.944;2023-08-12T15:54:26;3.83;;;1.98;;
14708;SDS011;7445;50.774;4.944;2023-08-12T15:56:52;2.80;;;2.17;;
14708;SDS011;7445;50.774;4.944;2023-08-12T15:59:18;2.97;;;1.92;;
14708;SDS011;7445;50.774;4.944;2023-08-12T16:01:44;4.72;;;2.20;;
14708;SDS011;7445;50.774;4.944;2023-08-12T16:04:09;3.92;;;1.52;;
14708;SDS011;7445;50.774;4.944;2023-08-12T16:06:35;3.17;;;1.50;;
14708;SDS011;7445;50.774;4.944;2023-08-12T16:09:01;5.00;;;2.15;;
14708;SDS011;7445;50.774;4.944;2023-08-12T16:11:27;3.72;;;2.03;;
14708;SDS011;7445;50.774;4.944;2023-08-12T16:13:52;7.80;;;2.55;;
14708;SDS011;7445;50.774;4.944;2023-08-12T16:16:18;4.20;;;2.38;;
14708;SDS011;7445;50.774;4.944;2023-08-12T16:18:44;5.05;;;2.28;;
14708;SDS011;7445;50.774;4.944;2023-08-12T16:21:09;3.47;;;2.40;;
14708;SDS011;7445;50.774;4.944;2023-08-12T16:23:35;7.40;;;2.58;;
14708;SDS011;7445;50.774;4.944;2023-08-12T16:26:01;4.13;;;2.17;;
14708;SDS011;7445;50.774;4.944;2023-08-12T16:28:27;3.67;;;2.10;;
14708;SDS011;7445;50.774;4.944;2023-08-12T16:30:52;6.05;;;3.08;;
14708;SDS011;7445;50.774;4.944;2023-08-12T16:33:19;6.55;;;2.50;;
14708;SDS011;7445;50.774;4.944;2023-08-12T16:35:45;3.78;;;2.70;;
14708;SDS011;7445;50.774;4.944;2023-08-12T16:38:15;2.85;;;1.80;;
14708;SDS011;7445;50.774;4.944;2023-08-12T16:40:42;5.22;;;2.22;;
14708;SDS011;7445;50.774;4.944;2023-08-12T16:43:07;7.40;;;2.38;;
14708;SDS011;7445;50.774;4.944;2023-08-12T16:45:34;3.28;;;2.08;;
14708;SDS011;7445;50.774;4.944;2023-08-12T16:48:00;4.68;;;2.67;;
14708;SDS011;7445;50.774;4.944;2023-08-12T16:50:25;5.07;;;2.30;;
14708;SDS011;7445;50.774;4.944;2023-08-12T16:52:51;2.20;;;1.73;;
14708;SDS011;7445;50.774;4.944;2023-08-12T16:55:17;6.13;;;2.45;;
14708;SDS011;7445;50.774;4.944;2023-08-12T16:57:42;3.58;;;1.98;;
14708;SDS011;7445;50.774;4.944;2023-08-12T17:00:08;4.13;;;1.95;;
14708;SDS011;7445;50.774;4.944;2023-08-12T17:02:35;5.18;;;1.83;;
14708;SDS011;7445;50.774;4.944;2023-08-12T17:05:01;2.17;;;1.60;;
14708;SDS011;7445;50.774;4.944;2023-08-12T17:07:27;4.32;;;2.10;;
14708;SDS011;7445;50.774;4.944;2023-08-12T17:09:53;4.88;;;2.42;;
14708;SDS011;7445;50.774;4.944;2023-08-12T17:12:20;4.82;;;2.53;;
14708;SDS011;7445;50.774;4.944;2023-08-12T17:14:46;6.70;;;2.38;;
14708;SDS011;7445;50.774;4.944;2023-08-12T17:17:11;3.63;;;1.90;;
14708;SDS011;7445;50.774;4.944;2023-08-12T17:19:37;3.88;;;1.98;;
14708;SDS011;7445;50.774;4.944;2023-08-12T17:22:04;3.50;;;2.47;;
14708;SDS011;7445;50.774;4.944;2023-08-12T17:24:30;5.50;;;2.40;;
14708;SDS011;7445;50.774;4.944;2023-08-12T17:26:55;6.20;;;2.55;;
14708;SDS011;7445;50.774;4.944;2023-08-12T17:29:21;4.40;;;2.60;;
14708;SDS011;7445;50.774;4.944;2023-08-12T17:31:47;6.53;;;2.65;;
14708;SDS011;7445;50.774;4.944;2023-08-12T17:34:13;4.93;;;2.22;;
14708;SDS011;7445;50.774;4.944;2023-08-12T17:36:39;9.45;;;3.30;;
14708;SDS011;7445;50.774;4.944;2023-08-12T17:39:05;4.55;;;2.22;;
14708;SDS011;7445;50.774;4.944;2023-08-12T17:41:30;4.18;;;1.85;;
14708;SDS011;7445;50.774;4.944;2023-08-12T17:43:56;3.45;;;2.25;;
14708;SDS011;7445;50.774;4.944;2023-08-12T17:46:21;4.53;;;2.58;;
14708;SDS011;7445;50.774;4.944;2023-08-12T17:48:47;4.55;;;2.90;;
14708;SDS011;7445;50.774;4.944;2023-08-12T17:51:13;4.68;;;2.75;;
14708;SDS011;7445;50.774;4.944;2023-08-12T17:53:43;6.78;;;3.05;;
14708;SDS011;7445;50.774;4.944;2023-08-12T17:56:10;5.60;;;3.17;;
14708;SDS011;7445;50.774;4.944;2023-08-12T17:58:37;9.82;;;3.83;;
14708;SDS011;7445;50.774;4.944;2023-08-12T18:01:03;4.63;;;2.83;;
14708;SDS011;7445;50.774;4.944;2023-08-12T18:03:29;3.97;;;2.22;;
14708;SDS011;7445;50.774;4.944;2023-08-12T18:05:55;6.63;;;2.58;;
14708;SDS011;7445;50.774;4.944;2023-08-12T18:08:20;4.88;;;2.72;;
14708;SDS011;7445;50.774;4.944;2023-08-12T18:10:47;8.25;;;2.80;;
14708;SDS011;7445;50.774;4.944;2023-08-12T18:13:13;4.07;;;1.90;;
14708;SDS011;7445;50.774;4.944;2023-08-12T18:15:38;5.28;;;2.80;;
14708;SDS011;7445;50.774;4.944;2023-08-12T18:18:04;7.85;;;3.28;;
14708;SDS011;7445;50.774;4.944;2023-08-12T18:20:31;3.13;;;2.20;;
14708;SDS011;7445;50.774;4.944;2023-08-12T18:22:56;6.22;;;2.97;;
14708;SDS011;7445;50.774;4.944;2023-08-12T18:25:23;8.55;;;2.95;;
14708;SDS011;7445;50.774;4.944;2023-08-12T18:27:49;7.53;;;3.10;;
14708;SDS011;7445;50.774;4.944;2023-08-12T18:30:15;10.80;;;3.20;;
14708;SDS011;7445;50.774;4.944;2023-08-12T18:32:40;9.10;;;3.15;;
14708;SDS011;7445;50.774;4.944;2023-08-12T18:35:06;3.08;;;2.40;;
14708;SDS011;7445;50.774;4.944;2023-08-12T18:37:32;5.90;;;3.10;;
14708;SDS011;7445;50.774;4.944;2023-08-12T18:40:01;3.70;;;2.88;;
14708;SDS011;7445;50.774;4.944;2023-08-12T18:42:27;5.88;;;3.08;;
14708;SDS011;7445;50.774;4.944;2023-08-12T18:44:53;3.08;;;2.78;;
14708;SDS011;7445;50.774;4.944;2023-08-12T18:47:18;3.88;;;2.80;;
14708;SDS011;7445;50.774;4.944;2023-08-12T18:49:44;8.63;;;3.65;;
14708;SDS011;7445;50.774;4.944;2023-08-12T18:52:10;5.45;;;2.90;;
14708;SDS011;7445;50.774;4.944;2023-08-12T18:54:36;5.47;;;2.88;;
14708;SDS011;7445;50.774;4.944;2023-08-12T18:57:01;3.72;;;2.63;;
14708;SDS011;7445;50.774;4.944;2023-08-12T18:59:27;4.75;;;2.97;;
14708;SDS011;7445;50.774;4.944;2023-08-12T19:01:54;7.93;;;3.97;;
14708;SDS011;7445;50.774;4.944;2023-08-12T19:04:21;6.47;;;3.35;;
14708;SDS011;7445;50.774;4.944;2023-08-12T19:06:47;7.38;;;3.50;;
14708;SDS011;7445;50.774;4.944;2023-08-12T19:09:16;6.78;;;3.65;;
14708;SDS011;7445;50.774;4.944;2023-08-12T19:11:45;7.78;;;4.15;;
14708;SDS011;7445;50.774;4.944;2023-08-12T19:14:11;4.43;;;2.63;;
14708;SDS011;7445;50.774;4.944;2023-08-12T19:16:39;9.68;;;4.05;;
14708;SDS011;7445;50.774;4.944;2023-08-12T19:19:05;7.07;;;3.83;;
14708;SDS011;7445;50.774;4.944;2023-08-12T19:21:30;8.73;;;3.08;;
14708;SDS011;7445;50.774;4.944;2023-08-12T19:23:56;4.28;;;3.13;;
14708;SDS011;7445;50.774;4.944;2023-08-12T19:26:22;8.57;;;3.65;;
14708;SDS011;7445;50.774;4.944;2023-08-12T19:28:48;6.65;;;3.00;;
14708;SDS011;7445;50.774;4.944;2023-08-12T19:31:14;4.18;;;3.53;;
14708;SDS011;7445;50.774;4.944;2023-08-12T19:33:40;4.72;;;3.10;;
14708;SDS011;7445;50.774;4.944;2023-08-12T19:36:08;9.30;;;2.97;;
14708;SDS011;7445;50.774;4.944;2023-08-12T19:38:34;6.50;;;3.85;;
14708;SDS011;7445;50.774;4.944;2023-08-12T19:41:00;6.22;;;3.05;;
14708;SDS011;7445;50.774;4.944;2023-08-12T19:43:29;7.07;;;3.53;;
14708;SDS011;7445;50.774;4.944;2023-08-12T19:45:55;8.35;;;3.97;;
14708;SDS011;7445;50.774;4.944;2023-08-12T19:48:21;6.35;;;3.75;;
14708;SDS011;7445;50.774;4.944;2023-08-12T19:50:47;5.97;;;3.83;;
14708;SDS011;7445;50.774;4.944;2023-08-12T19:53:15;5.00;;;3.50;;
14708;SDS011;7445;50.774;4.944;2023-08-12T19:55:40;8.50;;;4.80;;
14708;SDS011;7445;50.774;4.944;2023-08-12T19:58:06;5.90;;;3.70;;
14708;SDS011;7445;50.774;4.944;2023-08-12T20:00:32;7.00;;;3.85;;
14708;SDS011;7445;50.774;4.944;2023-08-12T20:02:58;6.10;;;3.40;;
14708;SDS011;7445;50.774;4.944;2023-08-12T20:05:23;7.85;;;3.30;;
14708;SDS011;7445;50.774;4.944;2023-08-12T20:07:51;6.60;;;3.83;;
14708;SDS011;7445;50.774;4.944;2023-08-12T20:10:18;4.40;;;2.92;;
14708;SDS011;7445;50.774;4.944;2023-08-12T20:12:45;5.00;;;2.78;;
14708;SDS011;7445;50.774;4.944;2023-08-12T20:15:11;7.57;;;3.20;;
14708;SDS011;7445;50.774;4.944;2023-08-12T20:17:37;4.38;;;2.90;;
14708;SDS011;7445;50.774;4.944;2023-08-12T20:20:04;5.60;;;2.75;;
14708;SDS011;7445;50.774;4.944;2023-08-12T20:22:36;6.03;;;2.75;;
14708;SDS011;7445;50.774;4.944;2023-08-12T20:25:02;5.82;;;3.05;;
14708;SDS011;7445;50.774;4.944;2023-08-12T20:27:28;5.03;;;2.90;;
14708;SDS011;7445;50.774;4.944;2023-08-12T20:29:54;6.57;;;3.25;;
14708;SDS011;7445;50.774;4.944;2023-08-12T20:32:19;7.28;;;3.75;;
14708;SDS011;7445;50.774;4.944;2023-08-12T20:34:45;8.43;;;3.95;;
14708;SDS011;7445;50.774;4.944;2023-08-12T20:37:11;5.13;;;3.88;;
14708;SDS011;7445;50.774;4.944;2023-08-12T20:39:36;10.50;;;3.03;;
14708;SDS011;7445;50.774;4.944;2023-08-12T20:42:02;5.57;;;3.37;;
14708;SDS011;7445;50.774;4.944;2023-08-12T20:44:30;8.70;;;3.23;;
14708;SDS011;7445;50.774;4.944;2023-08-12T20:46:56;7.27;;;3.17;;
14708;SDS011;7445;50.774;4.944;2023-08-12T20:49:22;8.50;;;2.80;;
14708;SDS011;7445;50.774;4.944;2023-08-12T20:51:47;7.35;;;3.72;;
14708;SDS011;7445;50.774;4.944;2023-08-12T20:54:13;5.93;;;2.90;;
14708;SDS011;7445;50.774;4.944;2023-08-12T20:56:39;5.17;;;3.07;;
14708;SDS011;7445;50.774;4.944;2023-08-12T20:59:05;7.77;;;4.40;;
14708;SDS011;7445;50.774;4.944;2023-08-12T21:01:31;7.77;;;3.93;;
14708;SDS011;7445;50.774;4.944;2023-08-12T21:03:57;5.20;;;2.90;;
14708;SDS011;7445;50.774;4.944;2023-08-12T21:06:23;4.43;;;3.30;;
14708;SDS011;7445;50.774;4.944;2023-08-12T21:08:49;4.47;;;3.30;;
14708;SDS011;7445;50.774;4.944;2023-08-12T21:11:14;5.67;;;3.40;;
